Time;durP1;ratioP1;P1;durP2;ratioP2;P2;SDS_P1;SDS_P2;PMS_P1;PMS_P2;Temp;Humidity;BMP_temperature;BMP_pressure;BME280_temperature;BME280_humidity;BME280_pressure;Samples;Min_cycle;Max_cycle;Signal;HPM_P1;HPM_P2
2024/03/09 00:00:17;;;;;;;30.52;16.05;;;6.20;76.00;;;;;;5069046;28;20033;-65
2024/03/09 00:02:45;;;;;;;27.17;14.98;;;6.20;76.10;;;;;;5065584;28;20025;-64
2024/03/09 00:05:11;;;;;;;29.85;15.07;;;6.20;76.10;;;;;;5069185;28;20523;-65
2024/03/09 00:07:37;;;;;;;28.40;16.02;;;6.20;77.00;;;;;;5068920;28;20025;-66
2024/03/09 00:10:07;;;;;;;26.17;15.00;;;6.20;76.40;;;;;;5065313;28;20024;-65
2024/03/09 00:12:36;;;;;;;31.05;15.95;;;6.20;76.40;;;;;;5067296;28;20031;-64
2024/03/09 00:15:02;;;;;;;28.20;15.80;;;6.10;76.50;;;;;;5063277;28;20024;-64
2024/03/09 00:17:29;;;;;;;28.60;14.73;;;6.10;76.50;;;;;;5064699;28;20036;-64
2024/03/09 00:19:58;;;;;;;27.52;14.68;;;6.10;76.50;;;;;;5066351;28;20037;-65
2024/03/09 00:22:27;;;;;;;27.88;15.88;;;6.10;77.40;;;;;;5066596;28;20031;-65
2024/03/09 00:24:53;;;;;;;28.20;14.82;;;6.10;77.00;;;;;;5066010;28;20025;-64
2024/03/09 00:27:24;;;;;;;32.08;15.80;;;6.10;77.00;;;;;;5063582;28;20372;-64
2024/03/09 00:29:51;;;;;;;31.08;16.48;;;6.10;77.30;;;;;;5068432;28;20505;-66
2024/03/09 00:32:16;;;;;;;31.48;17.35;;;6.00;77.20;;;;;;5070766;28;20044;-66
2024/03/09 00:34:42;;;;;;;31.05;16.48;;;6.00;77.40;;;;;;5070611;28;20056;-64
2024/03/09 00:37:08;;;;;;;26.05;14.10;;;6.00;77.60;;;;;;5070433;28;20249;-65
2024/03/09 00:39:37;;;;;;;26.00;13.85;;;6.00;77.30;;;;;;5072015;28;20123;-66
2024/03/09 00:42:03;;;;;;;26.92;15.57;;;6.00;77.40;;;;;;5068473;28;20024;-66
2024/03/09 00:44:30;;;;;;;25.95;14.07;;;6.00;77.40;;;;;;5074246;28;20040;-65
2024/03/09 00:46:55;;;;;;;23.38;12.00;;;6.00;77.40;;;;;;5067619;28;20383;-66
2024/03/09 00:49:21;;;;;;;24.38;13.15;;;6.00;77.40;;;;;;5066428;28;20024;-65
2024/03/09 00:51:47;;;;;;;29.27;15.35;;;6.00;77.40;;;;;;5067196;28;20024;-65
2024/03/09 00:54:13;;;;;;;25.60;14.52;;;6.00;77.50;;;;;;5065933;28;20037;-67
2024/03/09 00:56:39;;;;;;;27.33;14.55;;;5.90;77.50;;;;;;5065228;28;20470;-66
2024/03/09 00:59:05;;;;;;;28.75;15.32;;;5.90;77.50;;;;;;5069719;28;20044;-67
2024/03/09 01:01:30;;;;;;;28.83;14.68;;;6.00;77.60;;;;;;5068988;28;20459;-66
2024/03/09 01:03:57;;;;;;;27.55;15.57;;;6.00;77.70;;;;;;5067849;28;20036;-65
2024/03/09 01:06:23;;;;;;;33.30;17.55;;;5.90;77.90;;;;;;5063360;28;20032;-66
2024/03/09 01:08:49;;;;;;;29.98;16.35;;;5.90;78.00;;;;;;5070406;28;20020;-66
2024/03/09 01:11:17;;;;;;;27.58;14.48;;;5.90;78.00;;;;;;5068694;28;20051;-69
2024/03/09 01:13:43;;;;;;;27.98;15.27;;;5.90;78.00;;;;;;5070154;28;20048;-66
2024/03/09 01:16:09;;;;;;;27.90;14.90;;;5.90;78.20;;;;;;5068952;28;20025;-65
2024/03/09 01:18:35;;;;;;;31.33;16.83;;;5.80;78.20;;;;;;5064115;28;20880;-64
2024/03/09 01:21:01;;;;;;;34.40;18.27;;;5.80;78.60;;;;;;5068568;28;20025;-66
2024/03/09 01:23:30;;;;;;;31.27;16.98;;;5.80;78.60;;;;;;5065422;28;20071;-65
2024/03/09 01:25:56;;;;;;;28.60;14.38;;;5.80;78.60;;;;;;5068157;28;20028;-63
2024/03/09 01:28:22;;;;;;;28.77;15.13;;;5.80;78.40;;;;;;5068176;28;20424;-64
2024/03/09 01:30:47;;;;;;;31.52;16.67;;;5.80;78.50;;;;;;5066196;28;20086;-65
2024/03/09 01:33:14;;;;;;;30.33;16.15;;;5.80;78.60;;;;;;5064528;28;20017;-67
2024/03/09 01:35:39;;;;;;;29.00;14.60;;;5.80;78.70;;;;;;5069158;28;20545;-67
2024/03/09 01:38:05;;;;;;;28.35;14.82;;;5.80;78.50;;;;;;5067637;28;20024;-64
2024/03/09 01:40:31;;;;;;;25.75;13.02;;;5.80;78.70;;;;;;5067336;28;20058;-64
2024/03/09 01:42:57;;;;;;;23.85;13.18;;;5.80;78.50;;;;;;5067010;28;20029;-65
2024/03/09 01:45:23;;;;;;;30.52;16.75;;;5.80;78.50;;;;;;5067620;28;20428;-68
2024/03/09 01:47:50;;;;;;;29.08;15.20;;;5.70;78.80;;;;;;5069565;28;20025;-65
2024/03/09 01:50:16;;;;;;;29.45;14.93;;;5.70;78.60;;;;;;5069894;28;20028;-65
2024/03/09 01:52:47;;;;;;;32.85;17.25;;;5.80;78.70;;;;;;5069595;28;20031;-66
2024/03/09 01:55:14;;;;;;;29.85;15.52;;;5.70;79.10;;;;;;5069322;28;20082;-65
2024/03/09 01:57:39;;;;;;;30.33;15.82;;;5.60;79.00;;;;;;5064751;28;20680;-63
2024/03/09 02:00:09;;;;;;;27.13;14.43;;;5.70;79.10;;;;;;5070150;28;20028;-64
2024/03/09 02:02:34;;;;;;;27.55;15.18;;;5.70;79.00;;;;;;5065284;28;20078;-67
2024/03/09 02:05:04;;;;;;;32.50;17.83;;;5.60;79.00;;;;;;5068302;28;20484;-65
2024/03/09 02:07:30;;;;;;;27.85;15.35;;;5.60;79.20;;;;;;5074392;28;20599;-65
2024/03/09 02:09:55;;;;;;;26.42;14.15;;;5.60;79.20;;;;;;5074700;28;20009;-64
2024/03/09 02:12:23;;;;;;;29.17;16.00;;;5.60;79.40;;;;;;5077343;28;20467;-64
2024/03/09 02:14:48;;;;;;;31.40;15.27;;;5.50;79.40;;;;;;5074917;28;20395;-65
2024/03/09 02:17:14;;;;;;;28.55;14.50;;;5.50;79.40;;;;;;5064216;28;20059;-65
2024/03/09 02:19:43;;;;;;;30.17;15.25;;;5.50;79.40;;;;;;5065110;28;20425;-66
2024/03/09 02:22:11;;;;;;;23.50;12.88;;;5.50;79.50;;;;;;5069293;28;20032;-65
2024/03/09 02:24:41;;;;;;;26.48;14.45;;;5.50;79.50;;;;;;5076454;28;20693;-65
2024/03/09 02:27:07;;;;;;;26.23;13.20;;;5.50;79.40;;;;;;5070931;28;20104;-67
2024/03/09 02:29:33;;;;;;;31.33;16.80;;;5.50;79.60;;;;;;5068577;28;20024;-65
2024/03/09 02:31:59;;;;;;;30.23;15.63;;;5.50;79.80;;;;;;5078065;28;20028;-65
2024/03/09 02:34:25;;;;;;;29.80;14.85;;;5.40;79.80;;;;;;5064217;28;20021;-65
2024/03/09 02:36:52;;;;;;;28.73;15.30;;;5.40;80.40;;;;;;5071352;28;20097;-63
2024/03/09 02:39:17;;;;;;;29.02;14.93;;;5.40;79.80;;;;;;5064261;28;20021;-64
2024/03/09 02:41:43;;;;;;;27.80;14.63;;;5.40;79.90;;;;;;5075122;28;20078;-63
2024/03/09 02:44:13;;;;;;;29.90;16.45;;;5.40;80.00;;;;;;5072895;28;21766;-65
2024/03/09 02:46:39;;;;;;;29.83;15.57;;;5.40;80.20;;;;;;5068227;28;20029;-65
2024/03/09 02:49:05;;;;;;;26.25;14.10;;;5.40;80.30;;;;;;5072047;28;20023;-65
2024/03/09 02:51:32;;;;;;;29.42;15.25;;;5.40;80.20;;;;;;5067232;28;20025;-65
2024/03/09 02:53:58;;;;;;;30.55;15.77;;;5.40;80.20;;;;;;5065161;28;20017;-64
2024/03/09 02:56:24;;;;;;;27.58;14.93;;;5.30;80.10;;;;;;5065830;28;20025;-63
2024/03/09 02:58:49;;;;;;;27.02;14.75;;;5.40;80.20;;;;;;5077704;28;20038;-64
2024/03/09 03:01:20;;;;;;;29.17;16.77;;;5.30;80.30;;;;;;5064016;28;20158;-65
2024/03/09 03:03:47;;;;;;;28.67;15.50;;;5.30;80.40;;;;;;5066386;28;20024;-64
2024/03/09 03:06:18;;;;;;;33.97;17.58;;;5.30;80.40;;;;;;5071492;28;20024;-66
2024/03/09 03:08:49;;;;;;;29.47;15.07;;;5.30;80.40;;;;;;5068005;28;20017;-64
2024/03/09 03:11:18;;;;;;;27.17;14.50;;;5.30;80.50;;;;;;5070362;28;20021;-64
2024/03/09 03:13:45;;;;;;;28.55;15.77;;;5.30;80.40;;;;;;5067110;28;20031;-65
2024/03/09 03:16:29;;;;;;;25.63;14.02;;;5.20;80.40;;;;;;5077175;28;20483;-64
2024/03/09 03:19:01;;;;;;;27.25;14.02;;;5.20;80.50;;;;;;5080903;28;20028;-64
2024/03/09 03:21:27;;;;;;;27.13;15.40;;;5.20;80.50;;;;;;5087633;28;20024;-66
2024/03/09 03:23:53;;;;;;;25.77;14.35;;;5.20;80.50;;;;;;5073557;28;20031;-64
2024/03/09 03:26:20;;;;;;;25.90;13.00;;;5.20;80.50;;;;;;5079038;28;20020;-64
2024/03/09 03:28:50;;;;;;;23.23;12.00;;;5.20;80.40;;;;;;5076103;28;20502;-64
2024/03/09 03:31:18;;;;;;;24.55;13.02;;;5.20;80.50;;;;;;5072019;28;20016;-65
2024/03/09 03:33:44;;;;;;;27.25;14.65;;;5.20;80.50;;;;;;5076445;28;20069;-65
2024/03/09 03:36:11;;;;;;;25.65;13.25;;;5.20;80.70;;;;;;5076581;28;20048;-65
2024/03/09 03:38:37;;;;;;;25.40;13.93;;;5.20;80.70;;;;;;5075955;28;20021;-66
2024/03/09 03:41:07;;;;;;;30.77;15.45;;;5.10;80.70;;;;;;5071951;28;20047;-65
2024/03/09 03:43:36;;;;;;;31.17;16.38;;;5.10;81.00;;;;;;5071083;28;20104;-64
2024/03/09 03:46:03;;;;;;;31.08;16.27;;;5.10;81.00;;;;;;5064694;28;20044;-66
2024/03/09 03:48:29;;;;;;;31.50;16.00;;;5.10;81.90;;;;;;5070653;28;20024;-64
2024/03/09 03:50:55;;;;;;;32.97;17.17;;;5.10;81.20;;;;;;5070291;28;20012;-65
2024/03/09 03:53:21;;;;;;;27.30;14.50;;;5.10;81.20;;;;;;5077172;28;20102;-65
2024/03/09 03:55:47;;;;;;;23.55;13.10;;;5.10;81.10;;;;;;5078441;28;20059;-66
2024/03/09 03:58:15;;;;;;;25.05;13.40;;;5.10;81.00;;;;;;5077837;28;20024;-65
2024/03/09 04:00:41;;;;;;;23.48;12.50;;;5.10;81.00;;;;;;5072574;28;20033;-65
2024/03/09 04:03:07;;;;;;;22.92;12.38;;;5.10;80.90;;;;;;5069678;28;20024;-66
2024/03/09 04:05:33;;;;;;;29.35;15.07;;;5.20;80.90;;;;;;5070230;28;20108;-65
2024/03/09 04:07:59;;;;;;;28.65;15.20;;;5.10;80.90;;;;;;5070595;28;20016;-64
2024/03/09 04:10:24;;;;;;;31.98;16.27;;;5.20;81.00;;;;;;5071943;28;20025;-67
2024/03/09 04:12:50;;;;;;;26.52;14.90;;;5.20;81.00;;;;;;5070421;28;20028;-65
2024/03/09 04:15:16;;;;;;;25.85;13.25;;;5.20;80.90;;;;;;5069357;28;20028;-64
2024/03/09 04:17:42;;;;;;;25.65;14.20;;;5.20;80.90;;;;;;5070183;28;20601;-69
2024/03/09 04:20:15;;;;;;;25.88;13.93;;;5.20;80.90;;;;;;5069951;28;20024;-66
2024/03/09 04:22:42;;;;;;;23.55;13.30;;;5.20;80.80;;;;;;5071256;28;20093;-65
2024/03/09 04:25:09;;;;;;;24.92;12.82;;;5.20;80.70;;;;;;5077462;28;20020;-65
2024/03/09 04:27:34;;;;;;;29.13;15.05;;;5.20;80.70;;;;;;5071611;28;20471;-65
2024/03/09 04:30:01;;;;;;;28.42;14.68;;;5.20;80.70;;;;;;5072845;28;20031;-65
2024/03/09 04:32:27;;;;;;;30.85;14.95;;;5.20;80.70;;;;;;5072046;28;20031;-67
2024/03/09 04:34:53;;;;;;;27.75;15.18;;;5.20;80.90;;;;;;5069362;28;20055;-64
2024/03/09 04:37:25;;;;;;;27.95;15.20;;;5.20;81.00;;;;;;5069568;28;20096;-66
2024/03/09 04:39:55;;;;;;;;;;;5.20;81.00;;;;;;5067824;28;20020;-66
2024/03/09 04:42:24;;;;;;;27.85;15.02;;;5.20;81.00;;;;;;5072745;28;20616;-66
2024/03/09 04:44:53;;;;;;;26.33;14.18;;;5.20;81.00;;;;;;5069026;28;20112;-63
2024/03/09 04:47:19;;;;;;;30.23;15.55;;;5.20;81.00;;;;;;5073660;28;20103;-65
2024/03/09 04:49:47;;;;;;;31.95;17.67;;;5.20;81.00;;;;;;5070245;28;20101;-65
2024/03/09 04:52:13;;;;;;;25.63;14.23;;;5.10;81.00;;;;;;5073579;28;20028;-64
2024/03/09 04:54:43;;;;;;;29.75;15.90;;;5.20;81.00;;;;;;5068511;28;20111;-66
2024/03/09 04:57:24;;;;;;;31.77;17.83;;;5.10;80.90;;;;;;5069565;28;20036;-65
2024/03/09 04:59:49;;;;;;;28.92;14.95;;;5.10;81.00;;;;;;5070267;28;20487;-65
2024/03/09 05:02:16;;;;;;;25.92;13.90;;;5.10;81.00;;;;;;5071003;28;20035;-66
2024/03/09 05:04:42;;;;;;;28.95;14.70;;;5.10;80.90;;;;;;5072695;28;20284;-67
2024/03/09 05:07:09;;;;;;;23.92;12.05;;;5.10;81.00;;;;;;5076423;28;20510;-66
2024/03/09 05:09:37;;;;;;;20.73;12.00;;;5.10;80.90;;;;;;5076767;28;20150;-64
2024/03/09 05:12:03;;;;;;;27.58;14.95;;;5.10;80.90;;;;;;5074511;28;21435;-65
2024/03/09 05:14:30;;;;;;;26.90;14.50;;;5.10;81.00;;;;;;5083768;28;20476;-64
2024/03/09 05:16:56;;;;;;;26.10;14.23;;;5.10;80.90;;;;;;5072327;28;20016;-69
2024/03/09 05:19:22;;;;;;;29.52;15.80;;;5.10;81.00;;;;;;5069487;28;20032;-68
2024/03/09 05:21:48;;;;;;;25.75;14.43;;;5.10;81.10;;;;;;5067611;28;20032;-67
2024/03/09 05:24:15;;;;;;;26.60;13.90;;;5.10;81.10;;;;;;5073873;28;20070;-67
2024/03/09 05:26:42;;;;;;;24.75;13.20;;;5.10;81.10;;;;;;5068718;28;20025;-64
2024/03/09 05:29:11;;;;;;;26.75;14.60;;;5.10;81.00;;;;;;5074626;28;20150;-66
2024/03/09 05:31:37;;;;;;;27.15;14.70;;;5.10;81.10;;;;;;5080293;28;20089;-66
2024/03/09 05:34:04;;;;;;;30.13;15.25;;;5.10;81.10;;;;;;5083870;28;20478;-67
2024/03/09 05:36:29;;;;;;;27.13;15.48;;;5.00;81.10;;;;;;5073509;28;20020;-65
2024/03/09 05:38:55;;;;;;;26.50;14.00;;;5.00;81.30;;;;;;5076955;28;20079;-64
2024/03/09 05:41:21;;;;;;;28.75;15.50;;;5.00;81.30;;;;;;5067557;28;20098;-66
2024/03/09 05:43:47;;;;;;;24.58;13.63;;;5.00;81.30;;;;;;5082891;28;20032;-65
2024/03/09 05:46:16;;;;;;;25.15;13.70;;;5.00;81.30;;;;;;5075534;28;20055;-65
2024/03/09 05:48:45;;;;;;;24.52;13.45;;;5.00;81.30;;;;;;5069075;28;20060;-64
2024/03/09 05:51:14;;;;;;;24.80;13.80;;;4.90;81.40;;;;;;5072043;28;20498;-66
2024/03/09 05:53:42;;;;;;;24.13;13.80;;;4.90;81.50;;;;;;5069747;28;20024;-66
2024/03/09 05:56:11;;;;;;;26.52;13.88;;;4.90;81.50;;;;;;5079490;28;20015;-65
2024/03/09 05:58:37;;;;;;;32.13;16.60;;;4.90;81.50;;;;;;5071632;28;20487;-64
2024/03/09 06:01:03;;;;;;;31.00;15.05;;;4.80;81.70;;;;;;5076897;28;20023;-64
2024/03/09 06:03:29;;;;;;;25.65;14.23;;;4.80;81.70;;;;;;5076723;28;20043;-65
2024/03/09 06:05:55;;;;;;;24.90;12.90;;;4.80;81.70;;;;;;5071325;28;20020;-66
2024/03/09 06:08:21;;;;;;;22.77;12.38;;;4.80;81.70;;;;;;5077108;28;20035;-66
2024/03/09 06:10:50;;;;;;;25.67;13.95;;;4.90;81.60;;;;;;5068696;28;20426;-66
2024/03/09 06:13:18;;;;;;;27.45;14.57;;;4.80;81.60;;;;;;5073809;28;20057;-64
2024/03/09 06:15:47;;;;;;;26.13;14.57;;;4.80;81.70;;;;;;5068116;28;20056;-65
2024/03/09 06:18:16;;;;;;;21.65;12.52;;;4.80;81.60;;;;;;5076383;28;20031;-66
2024/03/09 06:20:42;;;;;;;24.27;13.27;;;4.80;81.60;;;;;;5069011;28;20028;-64
2024/03/09 06:23:08;;;;;;;27.83;14.48;;;4.90;81.60;;;;;;5072868;28;20577;-65
2024/03/09 06:25:33;;;;;;;28.98;15.88;;;4.80;81.60;;;;;;5067095;28;20130;-67
2024/03/09 06:28:04;;;;;;;25.83;13.90;;;4.90;81.70;;;;;;5068087;28;20044;-68
2024/03/09 06:30:29;;;;;;;26.95;14.40;;;4.80;81.70;;;;;;5067947;28;20020;-67
2024/03/09 06:32:57;;;;;;;28.52;14.70;;;4.90;81.80;;;;;;5067826;28;20046;-65
2024/03/09 06:35:26;;;;;;;23.33;12.18;;;4.80;81.70;;;;;;5076023;28;20126;-68
2024/03/09 06:37:59;;;;;;;28.05;14.63;;;4.90;81.70;;;;;;5072507;28;20031;-67
2024/03/09 06:40:31;;;;;;;24.88;12.75;;;4.90;81.70;;;;;;5074757;28;20028;-66
2024/03/09 06:42:58;;;;;;;22.38;12.88;;;5.00;81.70;;;;;;5074766;28;20111;-68
2024/03/09 06:45:26;;;;;;;24.60;12.82;;;5.00;81.50;;;;;;5075156;28;20101;-66
2024/03/09 06:47:52;;;;;;;26.63;13.68;;;5.00;81.40;;;;;;5074404;28;20032;-65
2024/03/09 06:50:18;;;;;;;28.02;15.10;;;5.10;81.40;;;;;;5069112;28;20019;-65
2024/03/09 06:52:43;;;;;;;26.80;13.73;;;5.10;81.30;;;;;;5075868;28;20020;-66
2024/03/09 06:55:09;;;;;;;26.52;13.93;;;5.10;81.20;;;;;;5074706;28;20534;-65
2024/03/09 06:57:35;;;;;;;22.05;12.43;;;5.20;81.10;;;;;;5076312;28;20020;-66
2024/03/09 07:00:11;;;;;;;24.92;13.05;;;5.20;80.90;;;;;;5079541;28;20152;-67
2024/03/09 07:02:37;;;;;;;23.42;12.23;;;5.30;80.80;;;;;;5074436;28;20455;-66
2024/03/09 07:05:04;;;;;;;29.08;15.45;;;5.30;80.80;;;;;;5081017;28;20032;-68
2024/03/09 07:07:30;;;;;;;26.70;14.20;;;5.30;80.60;;;;;;5073118;28;20024;-65
2024/03/09 07:09:59;;;;;;;25.02;13.68;;;5.30;80.70;;;;;;5076938;28;20016;-65
2024/03/09 07:12:25;;;;;;;23.08;13.18;;;5.30;80.60;;;;;;5072883;28;20067;-64
2024/03/09 07:14:50;;;;;;;23.70;13.50;;;5.40;80.50;;;;;;5079415;28;20683;-66
2024/03/09 07:17:17;;;;;;;20.83;11.60;;;5.40;80.40;;;;;;5072047;28;20036;-66
2024/03/09 07:19:45;;;;;;;20.42;10.85;;;5.40;80.40;;;;;;5074599;28;20029;-66
2024/03/09 07:22:13;;;;;;;19.45;10.88;;;5.50;80.40;;;;;;5073533;28;20479;-65
2024/03/09 07:24:42;;;;;;;22.65;12.95;;;5.50;80.10;;;;;;5075671;28;20024;-65
2024/03/09 07:27:09;;;;;;;20.48;11.15;;;5.50;80.00;;;;;;5071058;28;21214;-66
2024/03/09 07:29:38;;;;;;;20.02;11.35;;;5.50;80.10;;;;;;5073604;28;20017;-67
2024/03/09 07:32:06;;;;;;;22.52;11.82;;;5.50;80.00;;;;;;5071598;28;20025;-64
2024/03/09 07:34:33;;;;;;;23.05;13.07;;;5.60;80.00;;;;;;5071510;28;20052;-64
2024/03/09 07:36:59;;;;;;;23.73;13.02;;;5.50;79.80;;;;;;5078234;28;20032;-66
2024/03/09 07:39:24;;;;;;;25.08;13.00;;;5.50;79.90;;;;;;5073545;28;20028;-69
2024/03/09 07:41:50;;;;;;;24.70;12.73;;;5.50;80.00;;;;;;5073783;28;20234;-65
2024/03/09 07:44:15;;;;;;;22.85;12.32;;;5.50;80.00;;;;;;5071297;28;20025;-66
2024/03/09 07:46:41;;;;;;;19.08;10.40;;;5.50;80.00;;;;;;5072696;28;20039;-65
2024/03/09 07:49:07;;;;;;;20.20;11.57;;;5.50;80.00;;;;;;5073055;28;20070;-67
2024/03/09 07:51:35;;;;;;;21.98;12.15;;;5.60;80.00;;;;;;5075666;28;20071;-65
2024/03/09 07:54:01;;;;;;;21.38;11.48;;;5.60;80.00;;;;;;5082605;28;20024;-67
2024/03/09 07:56:26;;;;;;;21.70;11.95;;;5.60;79.90;;;;;;5074830;28;20107;-66
2024/03/09 07:58:52;;;;;;;21.52;11.93;;;5.60;79.80;;;;;;5077275;28;20081;-64
2024/03/09 08:01:18;;;;;;;20.08;11.23;;;5.60;79.90;;;;;;5066819;28;20032;-64
2024/03/09 08:03:45;;;;;;;19.75;10.88;;;5.70;79.90;;;;;;5070705;28;20123;-66
2024/03/09 08:06:11;;;;;;;18.20;10.10;;;5.70;79.90;;;;;;5071869;28;20032;-64
2024/03/09 08:08:37;;;;;;;20.10;10.80;;;5.80;79.80;;;;;;5069839;28;20552;-66
2024/03/09 08:11:02;;;;;;;21.13;11.32;;;5.80;79.70;;;;;;5068104;28;20024;-69
2024/03/09 08:13:28;;;;;;;19.83;10.45;;;5.80;79.80;;;;;;5065821;28;20037;-66
2024/03/09 08:15:54;;;;;;;21.35;10.40;;;5.80;79.70;;;;;;5067342;28;20032;-67
2024/03/09 08:18:21;;;;;;;21.15;11.52;;;5.80;79.70;;;;;;5071301;28;20052;-67
2024/03/09 08:20:49;;;;;;;20.50;11.70;;;5.90;79.80;;;;;;5067851;28;20037;-69
2024/03/09 08:23:14;;;;;;;22.48;10.90;;;5.90;79.60;;;;;;5067088;28;20533;-65
2024/03/09 08:25:41;;;;;;;20.33;10.13;;;5.90;79.60;;;;;;5069425;28;20032;-68
2024/03/09 08:28:08;;;;;;;17.05;9.65;;;6.00;79.50;;;;;;5067987;28;20015;-69
2024/03/09 08:30:34;;;;;;;16.60;9.18;;;6.00;79.50;;;;;;5067103;28;20383;-67
2024/03/09 08:32:59;;;;;;;16.77;9.35;;;6.10;80.00;;;;;;5067063;28;20017;-69
2024/03/09 08:35:27;;;;;;;16.95;9.32;;;6.20;79.40;;;;;;5072229;28;20036;-67
2024/03/09 08:37:53;;;;;;;18.35;10.23;;;6.20;79.40;;;;;;5070440;28;20017;-65
2024/03/09 08:40:20;;;;;;;19.42;10.48;;;6.20;79.40;;;;;;5068044;28;20103;-65
2024/03/09 08:42:53;;;;;;;23.77;13.05;;;6.20;79.40;;;;;;5067711;28;20024;-66
2024/03/09 08:45:22;;;;;;;24.15;12.65;;;6.30;79.30;;;;;;5066581;28;20037;-66
2024/03/09 08:47:52;;;;;;;22.13;13.02;;;6.40;79.20;;;;;;5069202;28;20013;-68
2024/03/09 08:50:18;;;;;;;21.25;12.05;;;6.40;79.20;;;;;;5068812;28;20025;-67
2024/03/09 08:52:45;;;;;;;19.67;10.82;;;6.40;79.20;;;;;;5070644;28;20070;-70
2024/03/09 08:55:11;;;;;;;17.20;10.10;;;6.60;79.20;;;;;;5066186;28;20012;-69
2024/03/09 08:57:42;;;;;;;21.00;11.80;;;6.60;78.90;;;;;;5068778;28;20070;-67
2024/03/09 09:00:09;;;;;;;20.30;11.05;;;6.70;78.70;;;;;;5069622;28;20024;-69
2024/03/09 09:02:38;;;;;;;20.75;11.82;;;6.70;78.60;;;;;;5069129;28;20021;-70
2024/03/09 09:05:14;;;;;;;21.85;12.38;;;6.80;78.50;;;;;;5069275;28;20032;-68
2024/03/09 09:07:40;;;;;;;21.80;12.05;;;6.90;78.30;;;;;;5064993;28;20110;-67
2024/03/09 09:10:14;;;;;;;23.58;13.15;;;7.00;78.20;;;;;;5074635;28;20020;-67
2024/03/09 09:12:46;;;;;;;20.45;11.68;;;7.10;78.00;;;;;;5068145;28;20594;-67
2024/03/09 09:15:13;;;;;;;19.90;11.32;;;7.30;77.80;;;;;;5064591;28;20025;-69
2024/03/09 09:17:42;;;;;;;18.65;11.15;;;7.40;77.30;;;;;;5068939;28;20478;-68
2024/03/09 09:20:11;;;;;;;18.35;10.80;;;7.40;77.00;;;;;;5066900;28;20682;-69
2024/03/09 09:22:41;;;;;;;24.02;13.88;;;7.50;76.70;;;;;;5067998;28;20031;-67
2024/03/09 09:25:09;;;;;;;18.23;10.98;;;7.50;76.80;;;;;;5065251;28;20020;-69
2024/03/09 09:27:36;;;;;;;21.05;11.95;;;7.70;76.70;;;;;;5063710;28;20020;-68
2024/03/09 09:30:02;;;;;;;22.70;13.05;;;7.70;76.20;;;;;;5063602;28;20013;-68
2024/03/09 09:32:28;;;;;;;22.83;13.18;;;7.80;76.10;;;;;;5068270;28;20445;-71
2024/03/09 09:34:53;;;;;;;23.73;12.80;;;7.80;76.10;;;;;;5068689;28;20024;-66
2024/03/09 09:37:19;;;;;;;20.83;12.27;;;7.90;76.00;;;;;;5071048;28;20027;-68
2024/03/09 09:39:46;;;;;;;21.98;12.60;;;8.00;76.00;;;;;;5067549;28;20035;-66
2024/03/09 09:42:12;;;;;;;19.83;11.77;;;8.10;75.60;;;;;;5066023;28;20133;-66
2024/03/09 09:44:40;;;;;;;19.98;10.57;;;8.00;75.50;;;;;;5069592;28;20058;-69
2024/03/09 09:47:05;;;;;;;18.92;10.98;;;8.20;75.50;;;;;;5066204;28;20028;-67
2024/03/09 09:49:32;;;;;;;20.80;11.43;;;8.20;75.30;;;;;;5066828;28;20699;-68
2024/03/09 09:52:03;;;;;;;21.05;11.63;;;8.20;75.10;;;;;;5066297;28;20016;-68
2024/03/09 09:54:29;;;;;;;;;;;8.20;75.30;;;;;;5070971;28;20028;-72
2024/03/09 09:56:58;;;;;;;18.52;10.18;;;8.30;75.10;;;;;;5069933;28;19939;-71
2024/03/09 09:59:25;;;;;;;15.93;9.13;;;8.30;75.30;;;;;;5068489;28;20028;-68
2024/03/09 10:01:51;;;;;;;15.10;8.43;;;8.40;75.30;;;;;;5065415;28;20017;-67
2024/03/09 10:04:16;;;;;;;13.95;8.18;;;8.60;75.20;;;;;;5068317;28;20040;-65
2024/03/09 10:06:43;;;;;;;20.25;11.13;;;8.70;75.10;;;;;;5066747;28;20099;-65
2024/03/09 10:09:08;;;;;;;18.50;10.73;;;8.80;74.60;;;;;;5061409;28;20077;-64
2024/03/09 10:11:34;;;;;;;19.63;11.00;;;8.80;74.60;;;;;;5067266;28;20111;-65
2024/03/09 10:14:01;;;;;;;14.45;8.73;;;8.90;74.60;;;;;;5071538;28;20020;-69
2024/03/09 10:16:31;;;;;;;22.40;12.90;;;9.00;74.50;;;;;;5065777;28;20024;-63
2024/03/09 10:18:57;;;;;;;19.33;11.48;;;9.00;74.00;;;;;;5067750;28;20116;-65
2024/03/09 10:21:33;;;;;;;19.42;10.90;;;9.10;74.20;;;;;;5065907;28;20025;-65
2024/03/09 10:24:08;;;;;;;20.67;11.23;;;9.10;73.90;;;;;;5062820;28;20028;-65
2024/03/09 10:26:36;;;;;;;18.48;10.32;;;9.20;73.80;;;;;;5069913;28;20394;-66
2024/03/09 10:29:03;;;;;;;16.48;9.70;;;9.30;73.90;;;;;;5068190;28;20016;-65
2024/03/09 10:31:30;;;;;;;15.07;8.20;;;9.40;73.90;;;;;;5067987;28;20020;-65
2024/03/09 10:33:57;;;;;;;12.75;7.65;;;9.60;73.80;;;;;;5066795;28;21211;-67
2024/03/09 10:36:26;;;;;;;13.43;8.10;;;9.70;73.60;;;;;;5070001;28;20510;-65
2024/03/09 10:38:55;;;;;;;16.65;9.40;;;9.80;73.50;;;;;;5065722;28;20020;-66
2024/03/09 10:41:25;;;;;;;16.13;9.63;;;9.80;73.20;;;;;;5068773;28;20372;-66
2024/03/09 10:43:53;;;;;;;18.77;10.60;;;9.80;73.80;;;;;;5064309;28;20032;-67
2024/03/09 10:46:28;;;;;;;17.38;10.00;;;9.70;73.10;;;;;;5065471;28;20361;-65
2024/03/09 10:48:55;;;;;;;15.00;8.30;;;9.80;73.10;;;;;;5064390;28;20035;-66
2024/03/09 10:51:28;;;;;;;13.48;8.13;;;9.80;73.20;;;;;;5068508;28;20029;-64
2024/03/09 10:53:54;;;;;;;17.15;10.38;;;9.90;73.30;;;;;;5065923;28;20029;-66
2024/03/09 10:56:23;;;;;;;17.35;9.77;;;10.10;73.10;;;;;;5066964;28;20024;-66
2024/03/09 10:58:53;;;;;;;18.63;9.77;;;10.10;72.70;;;;;;5066579;28;20137;-64
2024/03/09 11:01:21;;;;;;;18.48;11.07;;;10.20;72.50;;;;;;5066685;28;20047;-65
2024/03/09 11:03:49;;;;;;;13.80;8.45;;;10.20;72.40;;;;;;5068347;28;20024;-64
2024/03/09 11:06:17;;;;;;;19.25;10.15;;;10.40;72.40;;;;;;5063633;28;20215;-67
2024/03/09 11:08:45;;;;;;;17.45;10.48;;;10.60;71.80;;;;;;5063046;28;20028;-66
2024/03/09 11:11:13;;;;;;;15.13;8.68;;;10.50;71.80;;;;;;5065620;28;20032;-66
2024/03/09 11:13:39;;;;;;;16.38;9.30;;;10.60;72.00;;;;;;5064878;28;20028;-66
2024/03/09 11:16:09;;;;;;;18.77;10.68;;;10.80;71.40;;;;;;5065473;28;20422;-65
2024/03/09 11:18:39;;;;;;;13.20;8.25;;;10.90;71.30;;;;;;5068231;28;20029;-69
2024/03/09 11:21:07;;;;;;;19.02;11.05;;;11.00;71.40;;;;;;5066094;28;20525;-65
2024/03/09 11:23:36;;;;;;;15.25;8.82;;;11.10;70.50;;;;;;5064504;28;20017;-66
2024/03/09 11:26:02;;;;;;;19.52;11.23;;;11.30;70.60;;;;;;5068206;28;20031;-65
2024/03/09 11:28:43;;;;;;;16.17;9.80;;;11.30;69.40;;;;;;5067070;28;20375;-65
2024/03/09 11:31:14;;;;;;;18.45;10.98;;;11.20;69.90;;;;;;5065912;28;20390;-66
2024/03/09 11:33:51;;;;;;;17.05;10.02;;;11.30;70.10;;;;;;5065824;28;21677;-65
2024/03/09 11:36:39;;;;;;;17.52;10.82;;;11.20;69.70;;;;;;5070158;28;20446;-66
2024/03/09 11:39:08;;;;;;;16.80;9.88;;;11.10;70.10;;;;;;5067525;28;20052;-66
2024/03/09 11:41:38;;;;;;;13.77;8.35;;;11.10;70.10;;;;;;5065445;28;20514;-66
2024/03/09 11:44:04;;;;;;;14.73;8.25;;;11.30;70.50;;;;;;5068561;28;20035;-68
2024/03/09 11:46:34;;;;;;;14.25;8.05;;;11.50;70.20;;;;;;5064469;28;20028;-63
2024/03/09 11:49:03;;;;;;;13.70;8.25;;;11.60;70.00;;;;;;5068857;28;20041;-69
2024/03/09 11:51:33;;;;;;;14.43;8.27;;;11.80;69.30;;;;;;5067073;28;20036;-66
2024/03/09 11:54:02;;;;;;;14.65;9.27;;;11.80;69.20;;;;;;5072170;28;21380;-65
2024/03/09 11:56:31;;;;;;;15.02;8.77;;;11.80;69.30;;;;;;5067680;28;20020;-64
2024/03/09 11:58:57;;;;;;;15.30;9.73;;;11.80;69.10;;;;;;5070030;28;20121;-66
2024/03/09 12:01:24;;;;;;;13.60;8.57;;;11.90;68.90;;;;;;5069078;28;20626;-68
2024/03/09 12:03:53;;;;;;;17.35;9.85;;;11.90;69.20;;;;;;5070435;28;20012;-67
2024/03/09 12:06:21;;;;;;;17.10;10.15;;;12.00;68.40;;;;;;5065790;28;20107;-67
2024/03/09 12:08:49;;;;;;;14.88;9.18;;;11.90;68.50;;;;;;5067124;28;20118;-66
2024/03/09 12:11:17;;;;;;;14.68;8.95;;;12.00;68.50;;;;;;5067537;28;20060;-65
2024/03/09 12:13:45;;;;;;;12.73;7.72;;;12.00;68.30;;;;;;5072452;28;20050;-66
2024/03/09 12:16:11;;;;;;;17.83;10.23;;;12.10;68.70;;;;;;5067646;28;20039;-65
2024/03/09 12:18:37;;;;;;;18.77;11.02;;;12.10;68.00;;;;;;5069534;28;20020;-67
2024/03/09 12:21:03;;;;;;;18.08;10.80;;;12.10;68.00;;;;;;5068680;28;20386;-64
2024/03/09 12:23:29;;;;;;;16.48;9.85;;;12.20;67.90;;;;;;5071656;28;20036;-65
2024/03/09 12:25:54;;;;;;;13.65;8.30;;;12.20;67.80;;;;;;5071373;28;20021;-66
2024/03/09 12:28:20;;;;;;;14.68;8.50;;;12.20;68.00;;;;;;5068299;28;20032;-67
2024/03/09 12:30:50;;;;;;;11.85;7.55;;;12.20;68.10;;;;;;5064081;28;20020;-65
2024/03/09 12:33:16;;;;;;;13.00;7.97;;;12.40;68.10;;;;;;5070511;28;20028;-65
2024/03/09 12:35:42;;;;;;;12.75;7.90;;;12.40;67.90;;;;;;5073405;28;20115;-65
2024/03/09 12:38:11;;;;;;;10.27;6.60;;;12.50;67.90;;;;;;5065418;28;20024;-65